createdAt,value
2018-03-06T00:01:47.441Z,97744.65
2018-03-06T00:04:14.914Z,97744.44
2018-03-06T00:06:42.425Z,97743.29
2018-03-06T00:09:09.917Z,97747.13
2018-03-06T00:11:37.411Z,97746.73
2018-03-06T00:14:04.954Z,97749.92
2018-03-06T00:16:32.468Z,97748.11
2018-03-06T00:18:59.943Z,97745.78
2018-03-06T00:21:27.482Z,97742.65
2018-03-06T00:23:54.974Z,97742.77
2018-03-06T00:26:22.471Z,97738.93
2018-03-06T00:28:49.947Z,97738.93
2018-03-06T00:31:17.498Z,97749.63
2018-03-06T00:33:45.015Z,97743.03
2018-03-06T00:36:12.512Z,97737.13
2018-03-06T00:38:40.117Z,97738.83
2018-03-06T00:41:07.607Z,97741.19
2018-03-06T00:43:35.093Z,97743.02
2018-03-06T00:46:02.595Z,97732.55
2018-03-06T00:48:30.115Z,97730.50
2018-03-06T00:50:57.604Z,97731.07
2018-03-06T00:53:25.085Z,97730.61
2018-03-06T00:55:52.585Z,97725.18
2018-03-06T00:58:20.071Z,97717.27
2018-03-06T01:00:47.563Z,97712.06
2018-03-06T01:03:15.035Z,97721.05
2018-03-06T01:05:42.555Z,97714.92
2018-03-06T01:08:10.031Z,97717.09
2018-03-06T01:10:37.522Z,97714.67
2018-03-06T01:13:04.987Z,97715.51
2018-03-06T01:15:32.483Z,97713.48
2018-03-06T01:17:59.956Z,97703.84
2018-03-06T01:20:27.452Z,97706.68
2018-03-06T01:22:54.929Z,97693.86
2018-03-06T01:25:22.408Z,97696.22
2018-03-06T01:27:49.906Z,97710.97
2018-03-06T01:30:17.383Z,97706.36
2018-03-06T01:32:44.879Z,97705.52
2018-03-06T01:35:12.370Z,97705.55
2018-03-06T01:37:39.868Z,97707.19
2018-03-06T01:40:07.348Z,97708.14
2018-03-06T01:42:34.835Z,97697.33
2018-03-06T01:45:02.320Z,97693.52
2018-03-06T01:47:29.820Z,97705.94
2018-03-06T01:49:57.295Z,97694.15
2018-03-06T01:52:24.790Z,97688.23
2018-03-06T01:54:52.270Z,97690.75
2018-03-06T01:57:19.766Z,97685.44
2018-03-06T01:59:47.261Z,97691.65
2018-03-06T02:02:14.771Z,97690.80
2018-03-06T02:04:42.253Z,97682.41
2018-03-06T02:07:09.757Z,97686.81
2018-03-06T02:09:37.240Z,97681.63
2018-03-06T02:12:04.748Z,97677.91
2018-03-06T02:14:32.267Z,97676.31
2018-03-06T02:16:59.737Z,97687.69
2018-03-06T02:19:27.211Z,97682.34
2018-03-06T02:21:54.707Z,97683.42
2018-03-06T02:24:22.179Z,97679.78
2018-03-06T02:26:49.679Z,97679.81
2018-03-06T02:29:17.173Z,97676.70
2018-03-06T02:31:44.671Z,97681.94
2018-03-06T02:34:12.163Z,97681.53
2018-03-06T02:36:39.655Z,97670.41
2018-03-06T02:39:07.127Z,97673.73
2018-03-06T02:41:34.630Z,97667.59
2018-03-06T02:44:02.110Z,97665.05
2018-03-06T02:46:29.607Z,97663.45
2018-03-06T02:48:57.103Z,97665.45
2018-03-06T02:51:24.611Z,97662.25
2018-03-06T02:53:52.085Z,97662.52
2018-03-06T02:56:19.565Z,97654.06
2018-03-06T02:58:47.064Z,97655.94
2018-03-06T03:01:14.535Z,97652.20
2018-03-06T03:03:42.097Z,97653.95
2018-03-06T03:06:09.573Z,97651.13
2018-03-06T03:08:37.069Z,97648.73
2018-03-06T03:11:04.542Z,97646.05
2018-03-06T03:13:32.047Z,97642.84
2018-03-06T03:15:59.527Z,97649.93
2018-03-06T03:18:27.025Z,97646.05
2018-03-06T03:20:54.501Z,97652.45
2018-03-06T03:23:21.995Z,97651.51
2018-03-06T03:25:49.485Z,97650.58
2018-03-06T03:28:16.983Z,97648.31
2018-03-06T03:30:44.462Z,97651.80
2018-03-06T03:33:11.988Z,97653.68
2018-03-06T03:35:39.463Z,97654.21
2018-03-06T03:38:06.963Z,97655.81
2018-03-06T03:40:34.440Z,97650.05
2018-03-06T03:43:01.941Z,97658.09
2018-03-06T03:45:29.421Z,97659.96
2018-03-06T03:47:56.919Z,97658.63
2018-03-06T03:50:24.418Z,97652.73
2018-03-06T03:52:51.930Z,97650.72
2018-03-06T03:55:19.410Z,97658.11
2018-03-06T03:57:46.907Z,97657.69
2018-03-06T04:00:14.403Z,97653.14
2018-03-06T04:02:41.904Z,97653.81
2018-03-06T04:05:09.380Z,97649.62
2018-03-06T04:07:36.878Z,97646.14
2018-03-06T04:10:04.359Z,97645.20
2018-03-06T04:12:31.867Z,97640.00
2018-03-06T04:14:59.375Z,97638.91
2018-03-06T04:17:26.888Z,97636.11
2018-03-06T04:19:54.419Z,97637.06
2018-03-06T04:22:21.899Z,97635.32
2018-03-06T04:24:49.392Z,97636.53
2018-03-06T04:27:16.877Z,97646.31
2018-03-06T04:29:44.377Z,97640.28
2018-03-06T04:32:11.910Z,97634.39
2018-03-06T04:34:39.469Z,97638.41
2018-03-06T04:37:06.958Z,97636.53
2018-03-06T04:39:34.446Z,97630.49
2018-03-06T04:42:01.940Z,97630.89
2018-03-06T04:44:29.439Z,97633.98
2018-03-06T04:46:56.916Z,97641.64
2018-03-06T04:49:24.414Z,97640.30
2018-03-06T04:51:51.891Z,97639.48
2018-03-06T04:54:19.390Z,97645.25
2018-03-06T04:56:46.901Z,97643.63
2018-03-06T04:59:14.400Z,97636.78
2018-03-06T05:01:41.883Z,97644.70
2018-03-06T05:04:09.388Z,97639.22
2018-03-06T05:06:36.875Z,97645.64
2018-03-06T05:09:04.398Z,97646.70
2018-03-06T05:11:31.972Z,97643.48
2018-03-06T05:13:59.475Z,97640.13
2018-03-06T05:16:26.956Z,97643.48
2018-03-06T05:18:54.461Z,97639.88
2018-03-06T05:21:22.446Z,97639.21
2018-03-06T05:23:49.963Z,97638.15
2018-03-06T05:26:17.442Z,97640.14
2018-03-06T05:28:44.942Z,97631.72
2018-03-06T05:31:12.418Z,97630.91
2018-03-06T05:33:39.912Z,97634.40
2018-03-06T05:36:07.877Z,97638.67
2018-03-06T05:38:35.388Z,97637.48
2018-03-06T05:41:02.858Z,97638.66
2018-03-06T05:43:30.362Z,97641.48
2018-03-06T05:45:57.872Z,97634.38
2018-03-06T05:48:25.352Z,97637.59
2018-03-06T05:50:52.866Z,97642.55
2018-03-06T05:53:20.347Z,97642.68
2018-03-06T05:55:47.864Z,97644.67
2018-03-06T05:58:15.339Z,97648.72
2018-03-06T06:00:42.839Z,97644.58
2018-03-06T06:03:10.318Z,97642.58
2018-03-06T06:05:37.819Z,97642.30
2018-03-06T06:08:06.873Z,97642.42
2018-03-06T06:10:34.367Z,97640.42
2018-03-06T06:13:01.843Z,97647.38
2018-03-06T06:15:29.340Z,97654.48
2018-03-06T06:17:56.839Z,97653.27
2018-03-06T06:20:24.327Z,97651.13
2018-03-06T06:22:51.792Z,97657.67
2018-03-06T06:25:19.289Z,97658.48
2018-03-06T06:27:46.764Z,97660.20
2018-03-06T06:30:14.239Z,97658.58
2018-03-06T06:32:41.744Z,97661.00
2018-03-06T06:35:09.223Z,97661.91
2018-03-06T06:37:36.740Z,97671.57
2018-03-06T06:40:04.228Z,97669.58
2018-03-06T06:42:31.723Z,97673.07
2018-03-06T06:44:59.195Z,97674.53
2018-03-06T06:47:26.765Z,97677.06
2018-03-06T06:49:54.243Z,97677.59
2018-03-06T06:52:21.756Z,97674.91
2018-03-06T06:54:49.206Z,97678.22
2018-03-06T06:57:17.279Z,97666.39
2018-03-06T06:59:44.754Z,97665.33
2018-03-06T07:02:12.211Z,97663.98
2018-03-06T07:04:39.682Z,97668.83
2018-03-06T07:07:07.172Z,97675.08
2018-03-06T07:09:34.633Z,97675.72
2018-03-06T07:12:02.130Z,97666.44
2018-03-06T07:14:29.591Z,97666.61
2018-03-06T07:16:57.084Z,97664.79
2018-03-06T07:19:24.557Z,97665.68
2018-03-06T07:21:52.035Z,97671.61
2018-03-06T07:24:19.585Z,97666.43
2018-03-06T07:26:47.079Z,97670.64
2018-03-06T07:29:14.535Z,97666.58
2018-03-06T07:31:42.016Z,97661.75
2018-03-06T07:34:09.474Z,97653.59
2018-03-06T07:36:36.972Z,97662.62
2018-03-06T07:39:04.463Z,97665.12
2018-03-06T07:41:31.964Z,97677.53
2018-03-06T07:43:59.436Z,97668.50
2018-03-06T07:46:26.918Z,97666.63
2018-03-06T07:48:54.395Z,97672.74
2018-03-06T07:51:21.898Z,97666.08
2018-03-06T07:53:49.356Z,97673.55
2018-03-06T07:56:16.836Z,97664.25
2018-03-06T07:58:44.307Z,97666.05
2018-03-06T08:01:11.795Z,97667.48
2018-03-06T08:03:40.287Z,97664.91
2018-03-06T08:06:08.483Z,97668.86
2018-03-06T08:08:35.948Z,97668.37
2018-03-06T08:11:03.449Z,97671.08
2018-03-06T08:13:30.905Z,97664.16
2018-03-06T08:15:58.412Z,97668.37
2018-03-06T08:18:25.875Z,97671.55
2018-03-06T08:20:53.363Z,97671.47
2018-03-06T08:23:20.824Z,97665.62
2018-03-06T08:25:48.315Z,97666.27
2018-03-06T08:28:15.779Z,97669.73
2018-03-06T08:30:43.271Z,97663.98
2018-03-06T08:33:10.754Z,97660.04
2018-03-06T08:35:38.215Z,97666.34
2018-03-06T08:38:05.706Z,97662.63
2018-03-06T08:40:33.173Z,97662.86
2018-03-06T08:43:00.654Z,97659.64
2018-03-06T08:45:28.118Z,97668.09
2018-03-06T08:47:55.622Z,97665.70
2018-03-06T08:50:23.088Z,97665.22
2018-03-06T08:52:50.571Z,97665.86
2018-03-06T08:55:18.040Z,97668.66
2018-03-06T08:57:45.535Z,97670.13
2018-03-06T09:00:12.995Z,97666.48
2018-03-06T09:02:40.537Z,97664.35
2018-03-06T09:05:08.019Z,97661.81
2018-03-06T09:07:35.498Z,97665.22
2018-03-06T09:10:02.959Z,97661.69
2018-03-06T09:12:30.444Z,97662.20
2018-03-06T09:14:57.898Z,97664.20
2018-03-06T09:17:25.398Z,97658.55
2018-03-06T09:19:52.864Z,97648.43
2018-03-06T09:22:20.339Z,97651.66
2018-03-06T09:24:47.857Z,97645.34
2018-03-06T09:27:15.359Z,97650.09
2018-03-06T09:29:43.945Z,97648.75
2018-03-06T09:32:11.396Z,97652.38
2018-03-06T09:34:39.804Z,97660.00
2018-03-06T09:37:07.297Z,97655.08
2018-03-06T09:39:34.813Z,97653.31
2018-03-06T09:42:02.301Z,97655.88
2018-03-06T09:44:29.784Z,97652.66
2018-03-06T09:46:57.277Z,97649.37
2018-03-06T09:49:24.740Z,97654.59
2018-03-06T09:51:52.251Z,97646.64
2018-03-06T09:54:19.711Z,97646.19
2018-03-06T09:56:47.185Z,97645.06
2018-03-06T09:59:14.711Z,97644.97
2018-03-06T10:01:42.188Z,97645.47
2018-03-06T10:04:09.682Z,97646.37
2018-03-06T10:06:37.166Z,97648.06
2018-03-06T10:09:05.252Z,97643.20
2018-03-06T10:11:32.729Z,97646.19
2018-03-06T10:14:00.944Z,97644.91
2018-03-06T10:16:28.480Z,97648.04
2018-03-06T10:18:56.196Z,97643.08
2018-03-06T10:21:23.673Z,97647.61
2018-03-06T10:23:51.183Z,97648.64
2018-03-06T10:26:18.662Z,97645.95
2018-03-06T10:28:46.176Z,97644.06
2018-03-06T10:31:13.707Z,97642.79
2018-03-06T10:33:41.187Z,97640.31
2018-03-06T10:36:08.657Z,97642.12
2018-03-06T10:38:36.144Z,97644.71
2018-03-06T10:41:03.640Z,97644.56
2018-03-06T10:43:31.133Z,97644.09
2018-03-06T10:45:58.615Z,97644.58
2018-03-06T10:48:26.113Z,97642.76
2018-03-06T10:50:53.821Z,97643.63
2018-03-06T10:53:21.320Z,97645.28
2018-03-06T10:55:48.808Z,97645.11
2018-03-06T10:58:16.313Z,97644.72
2018-03-06T11:00:48.181Z,97645.72
2018-03-06T11:03:21.266Z,97640.17
2018-03-06T11:05:48.747Z,97637.45
2018-03-06T11:08:16.308Z,97643.38
2018-03-06T11:10:44.667Z,97643.16
2018-03-06T11:13:12.155Z,97645.14
2018-03-06T11:15:39.634Z,97641.49
2018-03-06T11:18:07.130Z,97635.98
2018-03-06T11:20:34.599Z,97636.11
2018-03-06T11:23:02.966Z,97639.24
2018-03-06T11:25:30.434Z,97627.70
2018-03-06T11:27:57.956Z,97626.93
2018-03-06T11:30:25.424Z,97631.66
2018-03-06T11:32:52.902Z,97624.73
2018-03-06T11:35:20.394Z,97638.91
2018-03-06T11:37:47.858Z,97636.15
2018-03-06T11:40:15.344Z,97632.98
2018-03-06T11:42:42.819Z,97630.70
2018-03-06T11:45:10.299Z,97637.16
2018-03-06T11:47:37.771Z,97628.97
2018-03-06T11:50:05.269Z,97627.87
2018-03-06T11:52:32.780Z,97630.14
2018-03-06T11:55:00.266Z,97632.73
2018-03-06T11:57:27.736Z,97636.32
2018-03-06T11:59:55.223Z,97639.73
2018-03-06T12:02:22.693Z,97633.27
2018-03-06T12:04:50.180Z,97636.05
2018-03-06T12:07:17.647Z,97635.41
2018-03-06T12:09:45.131Z,97631.08
2018-03-06T12:12:12.601Z,97633.79
2018-03-06T12:14:40.088Z,97634.45
2018-03-06T12:17:07.787Z,97636.98
2018-03-06T12:19:35.272Z,97636.94
2018-03-06T12:22:03.207Z,97633.11
2018-03-06T12:24:30.702Z,97636.17
2018-03-06T12:26:58.176Z,97630.70
2018-03-06T12:29:25.680Z,97632.88
2018-03-06T12:31:53.151Z,97630.34
2018-03-06T12:34:20.647Z,97630.59
2018-03-06T12:36:48.155Z,97631.33
2018-03-06T12:39:15.632Z,97637.40
2018-03-06T12:41:43.106Z,97621.41
2018-03-06T12:44:10.596Z,97632.20
2018-03-06T12:46:38.083Z,97630.66
2018-03-06T12:49:05.583Z,97633.75
2018-03-06T12:51:33.047Z,97618.13
2018-03-06T12:54:00.535Z,97622.32
2018-03-06T12:56:28.008Z,97629.09
2018-03-06T12:58:55.551Z,97623.90
2018-03-06T13:01:23.037Z,97619.84
2018-03-06T13:03:50.512Z,97616.61
2018-03-06T13:06:17.998Z,97616.73
2018-03-06T13:08:45.463Z,97607.27
2018-03-06T13:11:12.943Z,97613.38
2018-03-06T13:13:40.424Z,97615.24
2018-03-06T13:16:07.912Z,97613.55
2018-03-06T13:18:35.380Z,97619.98
2018-03-06T13:21:02.863Z,97613.48
2018-03-06T13:23:30.351Z,97613.23
2018-03-06T13:25:57.844Z,97614.27
2018-03-06T13:28:25.309Z,97617.23
2018-03-06T13:30:52.802Z,97612.80
2018-03-06T13:33:20.289Z,97616.80
2018-03-06T13:35:47.780Z,97609.91
2018-03-06T13:38:15.243Z,97613.53
2018-03-06T13:40:42.726Z,97615.42
2018-03-06T13:43:10.186Z,97611.11
2018-03-06T13:45:37.689Z,97599.39
2018-03-06T13:48:05.155Z,97609.25
2018-03-06T13:50:32.641Z,97606.63
2018-03-06T13:53:00.109Z,97603.47
2018-03-06T13:55:27.606Z,97606.36
2018-03-06T13:57:55.072Z,97607.01
2018-03-06T14:00:22.561Z,97607.59
2018-03-06T14:02:50.024Z,97601.63
2018-03-06T14:05:17.515Z,97601.14
2018-03-06T14:07:44.982Z,97600.39
2018-03-06T14:10:12.467Z,97597.61
2018-03-06T14:12:39.936Z,97598.06
2018-03-06T14:15:07.435Z,97602.82
2018-03-06T14:17:34.899Z,97600.97
2018-03-06T14:20:02.379Z,97605.16
2018-03-06T14:22:29.870Z,97597.20
2018-03-06T14:24:57.348Z,97602.68
2018-03-06T14:27:24.849Z,97607.42
2018-03-06T14:29:52.317Z,97605.95
2018-03-06T14:32:19.823Z,97605.45
2018-03-06T14:34:47.292Z,97600.73
2018-03-06T14:37:14.780Z,97607.97
2018-03-06T14:39:42.249Z,97604.94
2018-03-06T14:42:09.726Z,97600.60
2018-03-06T14:44:37.203Z,97599.55
2018-03-06T14:47:04.695Z,97602.03
2018-03-06T14:49:32.160Z,97605.20
2018-03-06T14:51:59.648Z,97603.95
2018-03-06T14:54:27.111Z,97593.34
2018-03-06T14:56:54.598Z,97594.88
2018-03-06T14:59:22.063Z,97595.91
2018-03-06T15:01:49.556Z,97593.14
2018-03-06T15:04:17.022Z,97588.70
2018-03-06T15:06:44.506Z,97592.23
2018-03-06T15:09:11.973Z,97589.36
2018-03-06T15:11:39.469Z,97588.89
2018-03-06T15:14:06.936Z,97587.17
2018-03-06T15:16:34.431Z,97593.02
2018-03-06T15:19:01.917Z,97591.16
2018-03-06T15:21:30.725Z,97587.89
2018-03-06T15:23:58.196Z,97594.34
2018-03-06T15:26:25.687Z,97588.14
2018-03-06T15:28:53.160Z,97586.95
2018-03-06T15:31:20.659Z,97595.30
2018-03-06T15:33:48.119Z,97597.78
2018-03-06T15:36:15.603Z,97597.29
2018-03-06T15:38:43.068Z,97603.45
2018-03-06T15:41:10.576Z,97595.27
2018-03-06T15:43:38.043Z,97599.88
2018-03-06T15:46:05.600Z,97606.23
2018-03-06T15:48:33.107Z,97604.63
2018-03-06T15:51:00.583Z,97602.55
2018-03-06T15:53:28.076Z,97606.67
2018-03-06T15:55:55.544Z,97602.63
2018-03-06T15:58:23.035Z,97614.78
2018-03-06T16:00:50.512Z,97616.44
2018-03-06T16:03:18.016Z,97608.06
2018-03-06T16:05:50.515Z,97613.02
2018-03-06T16:08:18.005Z,97620.84
2018-03-06T16:10:45.470Z,97616.55
2018-03-06T16:13:12.951Z,97614.38
2018-03-06T16:15:40.415Z,97618.91
2018-03-06T16:18:07.901Z,97629.44
2018-03-06T16:20:35.368Z,97625.48
2018-03-06T16:23:02.865Z,97625.02
2018-03-06T16:25:30.358Z,97631.83
2018-03-06T16:27:57.847Z,97630.19
2018-03-06T16:30:25.332Z,97632.58
2018-03-06T16:32:52.831Z,97634.90
2018-03-06T16:35:20.304Z,97636.11
2018-03-06T16:37:47.792Z,97638.09
2018-03-06T16:40:15.255Z,97644.56
2018-03-06T16:42:42.731Z,97647.83
2018-03-06T16:45:10.202Z,97655.16
2018-03-06T16:47:37.684Z,97647.75
2018-03-06T16:50:05.170Z,97651.64
2018-03-06T16:52:32.662Z,97662.34
2018-03-06T16:55:00.174Z,97661.61
2018-03-06T16:57:27.627Z,97665.05
2018-03-06T16:59:55.091Z,97670.83
2018-03-06T17:02:22.578Z,97677.30
2018-03-06T17:04:51.709Z,97677.04
2018-03-06T17:07:20.480Z,97674.80
2018-03-06T17:09:48.133Z,97682.45
2018-03-06T17:12:16.386Z,97680.61
2018-03-06T17:14:51.793Z,97682.17
2018-03-06T17:17:21.832Z,97683.25
2018-03-06T17:19:59.483Z,97684.06
2018-03-06T17:22:27.215Z,97689.84
2018-03-06T17:24:56.930Z,97691.63
2018-03-06T17:27:38.723Z,97694.33
2018-03-06T17:30:06.450Z,97694.01
2018-03-06T17:32:34.183Z,97692.95
2018-03-06T17:35:02.682Z,97696.33
2018-03-06T17:37:32.152Z,97696.97
2018-03-06T17:40:01.967Z,97701.52
2018-03-06T17:42:30.436Z,97706.48
2018-03-06T17:44:58.270Z,97712.59
2018-03-06T17:47:26.724Z,97713.97
2018-03-06T17:49:55.527Z,97712.13
2018-03-06T17:52:23.218Z,97721.48
2018-03-06T17:54:51.921Z,97718.58
2018-03-06T17:57:20.637Z,97724.48
2018-03-06T17:59:48.325Z,97730.56
2018-03-06T18:02:16.090Z,97723.34
2018-03-06T18:04:45.045Z,97733.16
2018-03-06T18:07:13.473Z,97731.00
2018-03-06T18:09:41.095Z,97737.73
2018-03-06T18:12:10.525Z,97729.93
2018-03-06T18:14:38.055Z,97735.44
2018-03-06T18:17:05.648Z,97728.41
2018-03-06T18:19:33.651Z,97737.83
2018-03-06T18:22:01.295Z,97738.86
2018-03-06T18:24:29.613Z,97742.61
2018-03-06T18:26:59.978Z,97739.44
2018-03-06T18:29:28.574Z,97744.52
2018-03-06T18:31:56.070Z,97748.02
2018-03-06T18:34:23.983Z,97746.93
2018-03-06T18:36:54.701Z,97748.48
2018-03-06T18:39:24.349Z,97745.11
2018-03-06T18:41:51.831Z,97749.41
2018-03-06T18:44:20.420Z,97746.92
2018-03-06T18:46:48.095Z,97746.80
2018-03-06T18:49:15.697Z,97748.28
2018-03-06T18:51:43.344Z,97747.09
2018-03-06T18:54:10.848Z,97749.00
2018-03-06T18:56:38.480Z,97750.13
2018-03-06T18:59:06.709Z,97747.47
2018-03-06T19:04:50.828Z,97755.77
2018-03-06T19:07:18.283Z,97755.94
2018-03-06T19:09:45.763Z,97749.98
2018-03-06T19:12:13.470Z,97748.70
2018-03-06T19:14:41.700Z,97744.92
2018-03-06T19:17:20.614Z,97759.80
2018-03-06T19:19:48.152Z,97744.10
2018-03-06T19:22:15.744Z,97754.40
2018-03-06T19:25:00.710Z,97755.48
2018-03-06T19:27:28.250Z,97750.92
2018-03-06T19:29:55.825Z,97746.70
2018-03-06T19:32:25.365Z,97745.80
2018-03-06T19:34:52.964Z,97750.75
2018-03-06T19:37:20.804Z,97745.16
2018-03-06T19:39:48.388Z,97745.26
2018-03-06T19:42:17.070Z,97746.97
2018-03-06T19:44:45.730Z,97748.41
2018-03-06T19:47:14.316Z,97751.97
2018-03-06T19:49:41.799Z,97750.27
2018-03-06T19:52:10.127Z,97755.34
2018-03-06T19:54:37.673Z,97753.32
2018-03-06T19:57:05.218Z,97764.77
2018-03-06T19:59:32.673Z,97760.30
2018-03-06T20:02:00.513Z,97764.54
2018-03-06T20:04:28.173Z,97760.58
2018-03-06T20:06:57.221Z,97763.59
2018-03-06T20:12:04.030Z,97771.97
2018-03-06T20:14:37.196Z,97769.64
2018-03-06T20:17:04.852Z,97774.45
2018-03-06T20:19:40.778Z,97783.46
2018-03-06T20:22:08.288Z,97780.52
2018-03-06T20:24:41.434Z,97789.95
2018-03-06T20:27:10.335Z,97796.02
2018-03-06T20:29:39.013Z,97803.85
2018-03-06T20:32:13.542Z,97807.25
2018-03-06T20:34:42.086Z,97813.13
2018-03-06T20:37:09.675Z,97806.23
2018-03-06T20:39:42.822Z,97815.00
2018-03-06T20:42:10.342Z,97820.55
2018-03-06T20:44:38.064Z,97819.22
2018-03-06T20:47:11.287Z,97822.70
2018-03-06T20:49:38.767Z,97821.67
2018-03-06T20:52:06.256Z,97823.67
2018-03-06T20:54:39.320Z,97822.94
2018-03-06T20:57:08.629Z,97817.20
2018-03-06T20:59:37.388Z,97825.80
2018-03-06T21:02:05.072Z,97818.66
2018-03-06T21:04:33.296Z,97818.28
2018-03-06T21:07:01.988Z,97814.20
2018-03-06T21:09:30.726Z,97814.91
2018-03-06T21:12:04.974Z,97815.63
2018-03-06T21:14:32.560Z,97810.08
2018-03-06T21:17:00.056Z,97815.48
2018-03-06T21:19:28.782Z,97817.77
2018-03-06T21:21:56.280Z,97820.06
2018-03-06T21:24:24.815Z,97816.90
2018-03-06T21:26:52.335Z,97816.36
2018-03-06T21:29:25.581Z,97818.00
2018-03-06T21:31:59.390Z,97818.86
2018-03-06T21:34:31.393Z,97816.50
2018-03-06T21:37:01.750Z,97810.25
2018-03-06T21:39:31.234Z,97803.68
2018-03-06T21:41:58.847Z,97807.46
2018-03-06T21:44:27.949Z,97809.69
2018-03-06T21:46:55.721Z,97816.70
2018-03-06T21:49:23.912Z,97819.57
2018-03-06T21:51:53.006Z,97816.09
2018-03-06T21:54:25.482Z,97819.94
2018-03-06T21:56:55.350Z,97822.00
2018-03-06T21:59:28.893Z,97824.42
2018-03-06T22:01:57.600Z,97824.18
2018-03-06T22:04:26.362Z,97822.31
2018-03-06T22:06:55.962Z,97824.78
2018-03-06T22:09:30.278Z,97818.16
2018-03-06T22:11:59.293Z,97822.75
2018-03-06T22:14:27.778Z,97815.66
2018-03-06T22:16:56.348Z,97822.11
2018-03-06T22:19:25.217Z,97814.48
2018-03-06T22:21:52.732Z,97818.73
2018-03-06T22:24:21.263Z,97823.53
2018-03-06T22:26:48.752Z,97825.16
2018-03-06T22:29:16.239Z,97824.69
2018-03-06T22:31:43.704Z,97817.44
2018-03-06T22:34:11.189Z,97823.60
2018-03-06T22:36:38.656Z,97823.80
2018-03-06T22:39:06.139Z,97821.71
2018-03-06T22:41:33.595Z,97823.20
2018-03-06T22:44:01.084Z,97826.94
2018-03-06T22:46:28.543Z,97824.17
2018-03-06T22:48:56.015Z,97817.45
2018-03-06T22:51:23.484Z,97814.41
2018-03-06T22:53:50.975Z,97814.34
2018-03-06T22:56:18.444Z,97819.09
2018-03-06T22:58:45.932Z,97815.70
2018-03-06T23:01:13.388Z,97819.41
2018-03-06T23:03:40.868Z,97823.31
2018-03-06T23:06:08.334Z,97822.43
2018-03-06T23:08:35.815Z,97822.44
2018-03-06T23:11:03.283Z,97824.77
2018-03-06T23:13:30.762Z,97826.48
2018-03-06T23:15:58.328Z,97822.83
2018-03-06T23:18:26.118Z,97829.89
2018-03-06T23:20:53.822Z,97830.83
2018-03-06T23:23:21.827Z,97834.42
2018-03-06T23:25:49.367Z,97837.54
2018-03-06T23:28:18.462Z,97835.45
2018-03-06T23:30:45.923Z,97837.05
2018-03-06T23:33:13.453Z,97834.08
2018-03-06T23:35:41.161Z,97830.37
2018-03-06T23:38:09.398Z,97830.75
2018-03-06T23:40:38.094Z,97827.11
2018-03-06T23:43:05.607Z,97826.16
2018-03-06T23:45:33.123Z,97831.65
2018-03-06T23:48:00.585Z,97828.46
2018-03-06T23:50:28.138Z,97831.69
2018-03-06T23:52:56.522Z,97832.51
2018-03-06T23:55:24.032Z,97844.05
2018-03-06T23:57:52.232Z,97841.44
